sensor_id;sensor_type;location;lat;lon;timestamp;temperature;humidity
35463;DHT22;21578;47.892;9.970;2023-07-24T02:03:11;19.80;95.80
35463;DHT22;21578;47.892;9.970;2023-07-24T02:07:57;19.30;96.60
35463;DHT22;21578;47.892;9.970;2023-07-24T02:12:44;19.10;96.60
35463;DHT22;21578;47.892;9.970;2023-07-24T02:17:31;19.20;96.60
35463;DHT22;21578;47.892;9.970;2023-07-24T02:22:19;19.10;96.60
35463;DHT22;21578;47.892;9.970;2023-07-24T02:27:06;19.10;96.60
35463;DHT22;21578;47.892;9.970;2023-07-24T02:31:54;18.90;96.60
35463;DHT22;21578;47.892;9.970;2023-07-24T02:36:41;19.00;96.60
35463;DHT22;21578;47.892;9.970;2023-07-24T02:41:29;18.90;96.60
35463;DHT22;21578;47.892;9.970;2023-07-24T02:46:16;18.90;96.60
35463;DHT22;21578;47.892;9.970;2023-07-24T02:51:03;18.80;96.60
35463;DHT22;21578;47.892;9.970;2023-07-24T02:55:50;18.70;96.60
35463;DHT22;21578;47.892;9.970;2023-07-24T03:00:38;18.70;96.60
35463;DHT22;21578;47.892;9.970;2023-07-24T03:05:25;18.60;96.60
35463;DHT22;21578;47.892;9.970;2023-07-24T03:10:12;18.60;96.60
35463;DHT22;21578;47.892;9.970;2023-07-24T03:14:59;18.60;96.60
35463;DHT22;21578;47.892;9.970;2023-07-24T03:19:48;18.60;96.60
35463;DHT22;21578;47.892;9.970;2023-07-24T03:24:35;18.60;96.60
35463;DHT22;21578;47.892;9.970;2023-07-24T03:29:24;18.60;96.60
35463;DHT22;21578;47.892;9.970;2023-07-24T03:34:11;18.50;96.60
35463;DHT22;21578;47.892;9.970;2023-07-24T03:38:59;18.50;96.60
35463;DHT22;21578;47.892;9.970;2023-07-24T03:43:46;18.40;96.60
35463;DHT22;21578;47.892;9.970;2023-07-24T03:48:33;18.40;96.60
35463;DHT22;21578;47.892;9.970;2023-07-24T03:53:20;18.30;96.60
35463;DHT22;21578;47.892;9.970;2023-07-24T03:58:08;18.30;96.60
35463;DHT22;21578;47.892;9.970;2023-07-24T04:02:55;18.40;96.60
35463;DHT22;21578;47.892;9.970;2023-07-24T04:07:45;18.40;96.60
35463;DHT22;21578;47.892;9.970;2023-07-24T04:12:32;18.30;96.60
35463;DHT22;21578;47.892;9.970;2023-07-24T04:17:21;18.40;96.60
35463;DHT22;21578;47.892;9.970;2023-07-24T04:22:08;18.40;96.60
35463;DHT22;21578;47.892;9.970;2023-07-24T04:26:57;18.30;96.60
35463;DHT22;21578;47.892;9.970;2023-07-24T04:31:43;18.30;96.60
35463;DHT22;21578;47.892;9.970;2023-07-24T04:36:37;18.20;96.60
35463;DHT22;21578;47.892;9.970;2023-07-24T04:41:24;18.30;96.60
35463;DHT22;21578;47.892;9.970;2023-07-24T04:46:11;18.30;96.60
35463;DHT22;21578;47.892;9.970;2023-07-24T04:50:58;18.40;96.60
35463;DHT22;21578;47.892;9.970;2023-07-24T04:55:47;18.50;96.60
35463;DHT22;21578;47.892;9.970;2023-07-24T05:00:34;18.60;96.60
35463;DHT22;21578;47.892;9.970;2023-07-24T05:05:21;18.80;96.60
35463;DHT22;21578;47.892;9.970;2023-07-24T05:10:08;18.90;96.60
35463;DHT22;21578;47.892;9.970;2023-07-24T05:14:56;19.00;96.60
35463;DHT22;21578;47.892;9.970;2023-07-24T05:19:43;19.00;96.60
35463;DHT22;21578;47.892;9.970;2023-07-24T05:24:30;18.90;96.60
35463;DHT22;21578;47.892;9.970;2023-07-24T05:29:17;18.90;96.60
35463;DHT22;21578;47.892;9.970;2023-07-24T05:34:05;19.00;96.60
35463;DHT22;21578;47.892;9.970;2023-07-24T05:38:52;19.10;96.60
35463;DHT22;21578;47.892;9.970;2023-07-24T05:43:39;19.30;96.60
35463;DHT22;21578;47.892;9.970;2023-07-24T05:48:26;19.70;96.60
35463;DHT22;21578;47.892;9.970;2023-07-24T05:53:14;19.80;96.60
35463;DHT22;21578;47.892;9.970;2023-07-24T05:58:01;19.50;96.60
35463;DHT22;21578;47.892;9.970;2023-07-24T06:02:48;19.00;96.60
35463;DHT22;21578;47.892;9.970;2023-07-24T06:07:35;18.60;96.60
35463;DHT22;21578;47.892;9.970;2023-07-24T06:12:23;17.90;96.60
35463;DHT22;21578;47.892;9.970;2023-07-24T06:17:10;17.60;96.60
35463;DHT22;21578;47.892;9.970;2023-07-24T06:21:57;17.40;96.60
35463;DHT22;21578;47.892;9.970;2023-07-24T06:26:44;17.30;96.60
35463;DHT22;21578;47.892;9.970;2023-07-24T06:31:32;17.20;96.60
35463;DHT22;21578;47.892;9.970;2023-07-24T06:36:19;17.10;96.60
35463;DHT22;21578;47.892;9.970;2023-07-24T06:41:06;17.10;96.60
35463;DHT22;21578;47.892;9.970;2023-07-24T06:45:53;17.10;96.60
35463;DHT22;21578;47.892;9.970;2023-07-24T06:50:41;17.10;96.60
35463;DHT22;21578;47.892;9.970;2023-07-24T06:55:28;17.20;96.60
35463;DHT22;21578;47.892;9.970;2023-07-24T07:00:15;17.30;96.60
35463;DHT22;21578;47.892;9.970;2023-07-24T07:05:02;17.30;96.60
35463;DHT22;21578;47.892;9.970;2023-07-24T07:09:51;17.20;96.60
35463;DHT22;21578;47.892;9.970;2023-07-24T07:14:37;17.30;96.60
35463;DHT22;21578;47.892;9.970;2023-07-24T07:19:24;17.30;96.60
35463;DHT22;21578;47.892;9.970;2023-07-24T07:24:11;17.30;96.60
35463;DHT22;21578;47.892;9.970;2023-07-24T07:28:59;17.40;96.60
35463;DHT22;21578;47.892;9.970;2023-07-24T07:33:46;17.50;96.60
35463;DHT22;21578;47.892;9.970;2023-07-24T07:38:33;17.80;96.60
35463;DHT22;21578;47.892;9.970;2023-07-24T07:43:20;18.10;96.60
35463;DHT22;21578;47.892;9.970;2023-07-24T07:48:09;18.20;96.60
35463;DHT22;21578;47.892;9.970;2023-07-24T07:52:56;18.20;96.60
35463;DHT22;21578;47.892;9.970;2023-07-24T07:57:43;18.20;96.60
35463;DHT22;21578;47.892;9.970;2023-07-24T08:02:29;18.30;96.60
35463;DHT22;21578;47.892;9.970;2023-07-24T08:07:18;18.30;96.60
35463;DHT22;21578;47.892;9.970;2023-07-24T08:12:06;18.30;96.60
35463;DHT22;21578;47.892;9.970;2023-07-24T08:16:53;18.40;96.60
35463;DHT22;21578;47.892;9.970;2023-07-24T08:21:40;18.50;96.60
35463;DHT22;21578;47.892;9.970;2023-07-24T08:26:28;18.60;96.60
35463;DHT22;21578;47.892;9.970;2023-07-24T08:31:15;18.70;96.60
35463;DHT22;21578;47.892;9.970;2023-07-24T08:36:04;18.90;96.60
35463;DHT22;21578;47.892;9.970;2023-07-24T08:41:00;19.20;96.60
35463;DHT22;21578;47.892;9.970;2023-07-24T08:45:48;19.30;96.60
35463;DHT22;21578;47.892;9.970;2023-07-24T08:50:35;19.50;96.60
35463;DHT22;21578;47.892;9.970;2023-07-24T08:55:23;19.60;96.60
35463;DHT22;21578;47.892;9.970;2023-07-24T09:00:11;19.80;96.60
35463;DHT22;21578;47.892;9.970;2023-07-24T09:04:59;19.80;96.60
35463;DHT22;21578;47.892;9.970;2023-07-24T09:09:47;20.00;96.60
35463;DHT22;21578;47.892;9.970;2023-07-24T09:14:34;20.00;96.60
35463;DHT22;21578;47.892;9.970;2023-07-24T09:19:21;20.20;96.60
35463;DHT22;21578;47.892;9.970;2023-07-24T09:24:14;20.30;96.60
35463;DHT22;21578;47.892;9.970;2023-07-24T09:29:01;20.40;96.60
35463;DHT22;21578;47.892;9.970;2023-07-24T09:33:48;20.30;96.60
35463;DHT22;21578;47.892;9.970;2023-07-24T09:38:35;20.00;96.60
35463;DHT22;21578;47.892;9.970;2023-07-24T09:43:24;20.00;96.60
35463;DHT22;21578;47.892;9.970;2023-07-24T09:48:13;20.20;96.60
35463;DHT22;21578;47.892;9.970;2023-07-24T09:53:00;20.30;96.60
35463;DHT22;21578;47.892;9.970;2023-07-24T09:57:48;20.40;96.60
35463;DHT22;21578;47.892;9.970;2023-07-24T10:02:37;20.60;96.60
35463;DHT22;21578;47.892;9.970;2023-07-24T10:07:24;20.60;96.60
35463;DHT22;21578;47.892;9.970;2023-07-24T10:12:12;20.70;96.60
35463;DHT22;21578;47.892;9.970;2023-07-24T10:16:59;21.00;96.60
35463;DHT22;21578;47.892;9.970;2023-07-24T10:21:48;21.30;96.60
35463;DHT22;21578;47.892;9.970;2023-07-24T10:26:35;21.30;96.60
35463;DHT22;21578;47.892;9.970;2023-07-24T10:31:24;21.40;95.90
35463;DHT22;21578;47.892;9.970;2023-07-24T10:36:12;21.60;96.60
35463;DHT22;21578;47.892;9.970;2023-07-24T10:41:03;21.90;93.90
35463;DHT22;21578;47.892;9.970;2023-07-24T10:45:52;22.10;94.50
35463;DHT22;21578;47.892;9.970;2023-07-24T10:50:40;22.40;93.30
35463;DHT22;21578;47.892;9.970;2023-07-24T10:55:27;22.50;93.80
35463;DHT22;21578;47.892;9.970;2023-07-24T11:00:17;22.50;91.70
35463;DHT22;21578;47.892;9.970;2023-07-24T11:05:04;22.50;92.80
35463;DHT22;21578;47.892;9.970;2023-07-24T11:09:52;22.50;94.10
35463;DHT22;21578;47.892;9.970;2023-07-24T11:14:49;22.40;95.10
35463;DHT22;21578;47.892;9.970;2023-07-24T11:19:37;21.80;96.60
35463;DHT22;21578;47.892;9.970;2023-07-24T11:24:24;21.50;96.60
35463;DHT22;21578;47.892;9.970;2023-07-24T11:29:12;21.30;96.60
35463;DHT22;21578;47.892;9.970;2023-07-24T11:34:00;21.00;96.60
35463;DHT22;21578;47.892;9.970;2023-07-24T11:38:48;20.70;96.60
35463;DHT22;21578;47.892;9.970;2023-07-24T11:43:35;20.10;96.60
35463;DHT22;21578;47.892;9.970;2023-07-24T11:48:31;19.30;96.60
35463;DHT22;21578;47.892;9.970;2023-07-24T11:53:22;18.90;96.60
35463;DHT22;21578;47.892;9.970;2023-07-24T11:58:14;18.60;96.60
35463;DHT22;21578;47.892;9.970;2023-07-24T12:03:02;18.40;96.60
35463;DHT22;21578;47.892;9.970;2023-07-24T12:07:50;18.30;96.60
35463;DHT22;21578;47.892;9.970;2023-07-24T12:12:38;18.20;96.60
35463;DHT22;21578;47.892;9.970;2023-07-24T12:17:26;18.10;96.60
35463;DHT22;21578;47.892;9.970;2023-07-24T12:22:13;18.00;96.60
35463;DHT22;21578;47.892;9.970;2023-07-24T12:27:00;17.90;96.60
35463;DHT22;21578;47.892;9.970;2023-07-24T12:31:47;18.00;96.60
35463;DHT22;21578;47.892;9.970;2023-07-24T12:36:35;18.20;96.60
35463;DHT22;21578;47.892;9.970;2023-07-24T12:41:22;18.50;96.60
35463;DHT22;21578;47.892;9.970;2023-07-24T12:46:09;18.80;96.60
35463;DHT22;21578;47.892;9.970;2023-07-24T12:50:56;19.30;96.60
35463;DHT22;21578;47.892;9.970;2023-07-24T12:55:44;19.90;96.60
35463;DHT22;21578;47.892;9.970;2023-07-24T13:00:31;20.60;96.60
35463;DHT22;21578;47.892;9.970;2023-07-24T13:05:18;21.10;96.50
35463;DHT22;21578;47.892;9.970;2023-07-24T13:10:06;21.40;96.60
35463;DHT22;21578;47.892;9.970;2023-07-24T13:14:55;21.80;96.60
35463;DHT22;21578;47.892;9.970;2023-07-24T13:19:42;22.30;91.20
35463;DHT22;21578;47.892;9.970;2023-07-24T13:24:29;22.70;94.60
35463;DHT22;21578;47.892;9.970;2023-07-24T13:29:16;23.20;91.40
35463;DHT22;21578;47.892;9.970;2023-07-24T13:34:04;23.80;89.80
35463;DHT22;21578;47.892;9.970;2023-07-24T13:38:51;24.30;85.60
35463;DHT22;21578;47.892;9.970;2023-07-24T13:43:38;24.60;83.80
35463;DHT22;21578;47.892;9.970;2023-07-24T13:48:26;25.00;82.70
35463;DHT22;21578;47.892;9.970;2023-07-24T13:53:15;25.30;85.30
35463;DHT22;21578;47.892;9.970;2023-07-24T13:58:02;25.00;83.50
35463;DHT22;21578;47.892;9.970;2023-07-24T14:02:48;24.90;80.60
35463;DHT22;21578;47.892;9.970;2023-07-24T14:07:35;24.80;84.40
35463;DHT22;21578;47.892;9.970;2023-07-24T14:12:23;24.60;86.10
35463;DHT22;21578;47.892;9.970;2023-07-24T14:17:11;24.40;85.10
35463;DHT22;21578;47.892;9.970;2023-07-24T14:22:00;24.20;85.10
35463;DHT22;21578;47.892;9.970;2023-07-24T14:26:47;24.00;86.40
35463;DHT22;21578;47.892;9.970;2023-07-24T14:31:35;23.80;87.50
35463;DHT22;21578;47.892;9.970;2023-07-24T14:36:22;23.60;86.20
35463;DHT22;21578;47.892;9.970;2023-07-24T14:41:09;23.10;87.80
35463;DHT22;21578;47.892;9.970;2023-07-24T14:45:58;22.90;90.50
35463;DHT22;21578;47.892;9.970;2023-07-24T14:50:46;22.80;94.10
35463;DHT22;21578;47.892;9.970;2023-07-24T14:55:33;22.70;92.80
35463;DHT22;21578;47.892;9.970;2023-07-24T15:00:20;22.70;93.20
35463;DHT22;21578;47.892;9.970;2023-07-24T15:05:07;22.60;93.30
35463;DHT22;21578;47.892;9.970;2023-07-24T15:09:55;22.40;95.10
35463;DHT22;21578;47.892;9.970;2023-07-24T15:14:42;22.20;96.60
35463;DHT22;21578;47.892;9.970;2023-07-24T15:19:29;21.90;96.60
35463;DHT22;21578;47.892;9.970;2023-07-24T15:24:16;21.80;96.60
35463;DHT22;21578;47.892;9.970;2023-07-24T15:29:05;21.20;96.60
35463;DHT22;21578;47.892;9.970;2023-07-24T15:33:52;20.40;96.60
35463;DHT22;21578;47.892;9.970;2023-07-24T15:38:39;20.30;96.60
35463;DHT22;21578;47.892;9.970;2023-07-24T15:43:26;20.20;96.60
35463;DHT22;21578;47.892;9.970;2023-07-24T15:48:14;20.20;96.60
35463;DHT22;21578;47.892;9.970;2023-07-24T15:53:01;20.20;96.60
35463;DHT22;21578;47.892;9.970;2023-07-24T15:57:48;20.20;96.60
35463;DHT22;21578;47.892;9.970;2023-07-24T16:02:35;20.20;96.60
35463;DHT22;21578;47.892;9.970;2023-07-24T16:07:23;20.20;96.60
35463;DHT22;21578;47.892;9.970;2023-07-24T16:12:10;20.30;96.60
35463;DHT22;21578;47.892;9.970;2023-07-24T16:16:57;20.30;96.60
35463;DHT22;21578;47.892;9.970;2023-07-24T16:21:45;20.30;96.60
35463;DHT22;21578;47.892;9.970;2023-07-24T16:26:34;20.50;96.60
35463;DHT22;21578;47.892;9.970;2023-07-24T16:31:21;21.00;96.60
35463;DHT22;21578;47.892;9.970;2023-07-24T16:36:08;21.30;96.60
35463;DHT22;21578;47.892;9.970;2023-07-24T16:40:55;21.80;96.60
35463;DHT22;21578;47.892;9.970;2023-07-24T16:45:43;22.70;96.60
35463;DHT22;21578;47.892;9.970;2023-07-24T16:50:34;23.30;94.60
35463;DHT22;21578;47.892;9.970;2023-07-24T16:55:21;23.40;93.90
35463;DHT22;21578;47.892;9.970;2023-07-24T17:00:09;23.70;91.20
35463;DHT22;21578;47.892;9.970;2023-07-24T17:04:58;23.30;91.10
35463;DHT22;21578;47.892;9.970;2023-07-24T17:09:45;22.80;94.10
35463;DHT22;21578;47.892;9.970;2023-07-24T17:14:32;22.40;95.30
35463;DHT22;21578;47.892;9.970;2023-07-24T17:19:19;21.90;96.60
35463;DHT22;21578;47.892;9.970;2023-07-24T17:24:08;21.60;96.60
35463;DHT22;21578;47.892;9.970;2023-07-24T17:28:54;21.30;96.60
35463;DHT22;21578;47.892;9.970;2023-07-24T17:33:41;21.10;96.60
35463;DHT22;21578;47.892;9.970;2023-07-24T17:38:28;20.90;96.60
35463;DHT22;21578;47.892;9.970;2023-07-24T17:43:18;20.60;96.60
35463;DHT22;21578;47.892;9.970;2023-07-24T17:48:05;20.40;96.60
35463;DHT22;21578;47.892;9.970;2023-07-24T17:52:55;20.20;96.60
35463;DHT22;21578;47.892;9.970;2023-07-24T17:57:43;20.10;96.60
35463;DHT22;21578;47.892;9.970;2023-07-24T18:02:36;20.00;96.60
35463;DHT22;21578;47.892;9.970;2023-07-24T18:07:23;19.80;96.60
35463;DHT22;21578;47.892;9.970;2023-07-24T18:12:10;19.50;96.60
35463;DHT22;21578;47.892;9.970;2023-07-24T18:16:56;19.40;96.60
35463;DHT22;21578;47.892;9.970;2023-07-24T18:21:45;19.30;96.60
35463;DHT22;21578;47.892;9.970;2023-07-24T18:26:32;19.20;96.60
35463;DHT22;21578;47.892;9.970;2023-07-24T18:31:19;19.00;96.60
35463;DHT22;21578;47.892;9.970;2023-07-24T18:36:06;18.90;96.60
35463;DHT22;21578;47.892;9.970;2023-07-24T18:40:54;18.90;96.60
35463;DHT22;21578;47.892;9.970;2023-07-24T18:45:41;19.00;96.60
35463;DHT22;21578;47.892;9.970;2023-07-24T18:50:28;18.80;96.60
35463;DHT22;21578;47.892;9.970;2023-07-24T18:55:15;18.70;96.60
35463;DHT22;21578;47.892;9.970;2023-07-24T19:00:06;18.50;96.60
35463;DHT22;21578;47.892;9.970;2023-07-24T19:04:53;18.30;96.60
35463;DHT22;21578;47.892;9.970;2023-07-24T19:09:40;18.20;96.60
35463;DHT22;21578;47.892;9.970;2023-07-24T19:14:27;18.20;96.60
35463;DHT22;21578;47.892;9.970;2023-07-24T19:19:15;18.20;96.60
35463;DHT22;21578;47.892;9.970;2023-07-24T19:24:02;18.20;96.60
35463;DHT22;21578;47.892;9.970;2023-07-24T19:28:49;18.20;96.60
35463;DHT22;21578;47.892;9.970;2023-07-24T19:33:36;18.20;96.60
35463;DHT22;21578;47.892;9.970;2023-07-24T19:38:25;18.10;96.60
35463;DHT22;21578;47.892;9.970;2023-07-24T19:43:12;18.10;96.60
35463;DHT22;21578;47.892;9.970;2023-07-24T19:47:58;18.10;96.60
35463;DHT22;21578;47.892;9.970;2023-07-24T19:52:45;18.00;96.60
35463;DHT22;21578;47.892;9.970;2023-07-24T19:57:36;18.00;96.60
35463;DHT22;21578;47.892;9.970;2023-07-24T20:02:22;17.90;96.60
35463;DHT22;21578;47.892;9.970;2023-07-24T20:07:09;17.90;96.60
35463;DHT22;21578;47.892;9.970;2023-07-24T20:11:57;17.90;96.60
35463;DHT22;21578;47.892;9.970;2023-07-24T20:16:45;17.90;96.60
35463;DHT22;21578;47.892;9.970;2023-07-24T20:21:32;17.90;96.60
35463;DHT22;21578;47.892;9.970;2023-07-24T20:36:39;17.80;96.60
35463;DHT22;21578;47.892;9.970;2023-07-24T20:41:26;17.80;96.60
35463;DHT22;21578;47.892;9.970;2023-07-24T20:46:14;17.80;96.60
35463;DHT22;21578;47.892;9.970;2023-07-24T20:51:01;17.80;96.60
35463;DHT22;21578;47.892;9.970;2023-07-24T20:55:49;17.80;96.60
35463;DHT22;21578;47.892;9.970;2023-07-24T21:00:36;17.70;96.60
35463;DHT22;21578;47.892;9.970;2023-07-24T21:05:23;17.70;96.60
35463;DHT22;21578;47.892;9.970;2023-07-24T21:10:10;17.80;96.60
35463;DHT22;21578;47.892;9.970;2023-07-24T21:14:59;17.80;96.60
35463;DHT22;21578;47.892;9.970;2023-07-24T21:19:46;17.80;96.60
35463;DHT22;21578;47.892;9.970;2023-07-24T21:24:33;17.80;96.60
35463;DHT22;21578;47.892;9.970;2023-07-24T21:29:20;17.80;96.60
35463;DHT22;21578;47.892;9.970;2023-07-24T21:34:08;17.70;96.60
35463;DHT22;21578;47.892;9.970;2023-07-24T21:38:55;17.70;96.60
35463;DHT22;21578;47.892;9.970;2023-07-24T21:43:42;17.70;96.60
35463;DHT22;21578;47.892;9.970;2023-07-24T21:48:29;17.70;96.60
35463;DHT22;21578;47.892;9.970;2023-07-24T21:53:17;17.70;96.60
35463;DHT22;21578;47.892;9.970;2023-07-24T21:58:05;17.60;96.60
35463;DHT22;21578;47.892;9.970;2023-07-24T22:02:52;17.60;96.60
35463;DHT22;21578;47.892;9.970;2023-07-24T22:07:39;17.60;96.60
35463;DHT22;21578;47.892;9.970;2023-07-24T22:12:27;17.60;96.60
35463;DHT22;21578;47.892;9.970;2023-07-24T22:17:14;17.60;96.60
35463;DHT22;21578;47.892;9.970;2023-07-24T22:22:01;17.60;96.60
35463;DHT22;21578;47.892;9.970;2023-07-24T22:26:48;17.60;96.60
35463;DHT22;21578;47.892;9.970;2023-07-24T22:31:36;17.60;96.60
35463;DHT22;21578;47.892;9.970;2023-07-24T22:36:23;17.50;96.60
35463;DHT22;21578;47.892;9.970;2023-07-24T22:41:10;17.50;96.60
35463;DHT22;21578;47.892;9.970;2023-07-24T22:45:57;17.50;96.60
35463;DHT22;21578;47.892;9.970;2023-07-24T22:50:47;17.50;96.60
35463;DHT22;21578;47.892;9.970;2023-07-24T22:55:34;17.60;96.60
35463;DHT22;21578;47.892;9.970;2023-07-24T23:00:21;17.50;96.60
35463;DHT22;21578;47.892;9.970;2023-07-24T23:05:08;17.50;96.60
35463;DHT22;21578;47.892;9.970;2023-07-24T23:09:56;17.50;96.60
35463;DHT22;21578;47.892;9.970;2023-07-24T23:14:43;17.40;96.60
35463;DHT22;21578;47.892;9.970;2023-07-24T23:19:30;17.40;96.60
35463;DHT22;21578;47.892;9.970;2023-07-24T23:24:17;17.40;96.60
35463;DHT22;21578;47.892;9.970;2023-07-24T23:29:05;17.50;96.60
35463;DHT22;21578;47.892;9.970;2023-07-24T23:33:52;17.50;96.60
35463;DHT22;21578;47.892;9.970;2023-07-24T23:38:39;17.50;96.60
35463;DHT22;21578;47.892;9.970;2023-07-24T23:43:26;17.50;96.60
35463;DHT22;21578;47.892;9.970;2023-07-24T23:48:14;17.60;96.60
35463;DHT22;21578;47.892;9.970;2023-07-24T23:53:01;17.60;96.60
35463;DHT22;21578;47.892;9.970;2023-07-24T23:57:48;17.60;96.60
